sensor_id;sensor_type;location;lat;lon;timestamp;temperature;humidity
3300;DHT22;1662;49.310;8.134;2022-09-11T00:01:16;16.90;99.90
3300;DHT22;1662;49.310;8.134;2022-09-11T00:03:43;16.80;99.90
3300;DHT22;1662;49.310;8.134;2022-09-11T00:06:12;16.90;99.90
3300;DHT22;1662;49.310;8.134;2022-09-11T00:08:39;16.80;99.90
3300;DHT22;1662;49.310;8.134;2022-09-11T00:11:17;16.90;99.90
3300;DHT22;1662;49.310;8.134;2022-09-11T00:13:46;16.80;99.90
3300;DHT22;1662;49.310;8.134;2022-09-11T00:18:43;16.80;99.90
3300;DHT22;1662;49.310;8.134;2022-09-11T00:21:09;16.80;99.90
3300;DHT22;1662;49.310;8.134;2022-09-11T00:23:34;16.80;99.90
3300;DHT22;1662;49.310;8.134;2022-09-11T00:26:03;16.80;99.90
3300;DHT22;1662;49.310;8.134;2022-09-11T00:28:31;16.80;99.90
3300;DHT22;1662;49.310;8.134;2022-09-11T00:33:26;16.80;99.90
3300;DHT22;1662;49.310;8.134;2022-09-11T00:36:00;16.80;99.90
3300;DHT22;1662;49.310;8.134;2022-09-11T00:38:32;16.80;99.90
3300;DHT22;1662;49.310;8.134;2022-09-11T00:41:00;16.80;99.90
3300;DHT22;1662;49.310;8.134;2022-09-11T00:43:47;16.80;99.90
3300;DHT22;1662;49.310;8.134;2022-09-11T00:46:14;16.80;99.90
3300;DHT22;1662;49.310;8.134;2022-09-11T00:48:41;16.70;99.90
3300;DHT22;1662;49.310;8.134;2022-09-11T00:51:08;16.80;99.90
3300;DHT22;1662;49.310;8.134;2022-09-11T00:53:36;16.80;99.90
3300;DHT22;1662;49.310;8.134;2022-09-11T00:56:05;16.80;99.90
3300;DHT22;1662;49.310;8.134;2022-09-11T00:58:35;16.80;99.90
3300;DHT22;1662;49.310;8.134;2022-09-11T01:01:02;16.80;99.90
3300;DHT22;1662;49.310;8.134;2022-09-11T01:03:28;16.80;99.90
3300;DHT22;1662;49.310;8.134;2022-09-11T01:05:56;16.80;99.90
3300;DHT22;1662;49.310;8.134;2022-09-11T01:08:28;16.80;99.90
3300;DHT22;1662;49.310;8.134;2022-09-11T01:16:45;16.80;99.90
3300;DHT22;1662;49.310;8.134;2022-09-11T01:19:40;16.80;99.90
3300;DHT22;1662;49.310;8.134;2022-09-11T01:24:55;16.80;99.90
3300;DHT22;1662;49.310;8.134;2022-09-11T01:27:52;16.80;99.90
3300;DHT22;1662;49.310;8.134;2022-09-11T01:30:19;16.80;99.90
3300;DHT22;1662;49.310;8.134;2022-09-11T01:35:25;16.80;99.90
3300;DHT22;1662;49.310;8.134;2022-09-11T01:38:00;16.80;99.90
3300;DHT22;1662;49.310;8.134;2022-09-11T01:40:45;16.80;99.90
3300;DHT22;1662;49.310;8.134;2022-09-11T01:43:20;16.80;99.90
3300;DHT22;1662;49.310;8.134;2022-09-11T01:45:49;16.80;99.90
3300;DHT22;1662;49.310;8.134;2022-09-11T01:48:26;16.80;99.90
3300;DHT22;1662;49.310;8.134;2022-09-11T01:50:57;16.80;99.90
3300;DHT22;1662;49.310;8.134;2022-09-11T01:53:31;16.70;99.90
3300;DHT22;1662;49.310;8.134;2022-09-11T01:56:06;16.70;99.90
3300;DHT22;1662;49.310;8.134;2022-09-11T01:58:34;16.70;99.90
3300;DHT22;1662;49.310;8.134;2022-09-11T02:01:08;16.70;99.90
3300;DHT22;1662;49.310;8.134;2022-09-11T02:03:41;16.80;99.90
3300;DHT22;1662;49.310;8.134;2022-09-11T02:06:17;16.80;99.90
3300;DHT22;1662;49.310;8.134;2022-09-11T02:08:50;16.80;99.90
3300;DHT22;1662;49.310;8.134;2022-09-11T02:11:19;16.80;99.90
3300;DHT22;1662;49.310;8.134;2022-09-11T02:21:30;16.70;99.90
3300;DHT22;1662;49.310;8.134;2022-09-11T02:23:59;16.70;99.90
3300;DHT22;1662;49.310;8.134;2022-09-11T02:26:29;16.70;99.90
3300;DHT22;1662;49.310;8.134;2022-09-11T02:28:56;16.70;99.90
3300;DHT22;1662;49.310;8.134;2022-09-11T02:31:22;16.70;99.90
3300;DHT22;1662;49.310;8.134;2022-09-11T02:33:49;16.70;99.90
3300;DHT22;1662;49.310;8.134;2022-09-11T02:36:28;16.70;99.90
3300;DHT22;1662;49.310;8.134;2022-09-11T02:56:26;16.70;99.90
3300;DHT22;1662;49.310;8.134;2022-09-11T02:58:52;16.70;99.90
3300;DHT22;1662;49.310;8.134;2022-09-11T03:01:20;16.60;99.90
3300;DHT22;1662;49.310;8.134;2022-09-11T03:03:46;16.60;99.90
3300;DHT22;1662;49.310;8.134;2022-09-11T03:06:22;16.60;99.90
3300;DHT22;1662;49.310;8.134;2022-09-11T03:08:49;16.60;99.90
3300;DHT22;1662;49.310;8.134;2022-09-11T03:11:15;16.70;99.90
3300;DHT22;1662;49.310;8.134;2022-09-11T03:13:43;16.70;99.90
3300;DHT22;1662;49.310;8.134;2022-09-11T03:16:11;16.70;99.90
3300;DHT22;1662;49.310;8.134;2022-09-11T03:18:37;16.70;99.90
3300;DHT22;1662;49.310;8.134;2022-09-11T03:21:03;16.70;99.90
3300;DHT22;1662;49.310;8.134;2022-09-11T03:23:29;16.70;99.90
3300;DHT22;1662;49.310;8.134;2022-09-11T03:25:55;16.70;99.90
3300;DHT22;1662;49.310;8.134;2022-09-11T03:28:21;16.70;99.90
3300;DHT22;1662;49.310;8.134;2022-09-11T03:30:48;16.70;99.90
3300;DHT22;1662;49.310;8.134;2022-09-11T03:33:14;16.70;99.90
3300;DHT22;1662;49.310;8.134;2022-09-11T03:35:42;16.70;99.90
3300;DHT22;1662;49.310;8.134;2022-09-11T03:38:08;16.70;99.90
3300;DHT22;1662;49.310;8.134;2022-09-11T03:40:37;16.70;99.90
3300;DHT22;1662;49.310;8.134;2022-09-11T03:43:02;16.70;99.90
3300;DHT22;1662;49.310;8.134;2022-09-11T03:45:30;16.70;99.90
3300;DHT22;1662;49.310;8.134;2022-09-11T03:47:56;16.70;99.90
3300;DHT22;1662;49.310;8.134;2022-09-11T03:50:22;16.70;99.90
3300;DHT22;1662;49.310;8.134;2022-09-11T03:52:48;16.70;99.90
3300;DHT22;1662;49.310;8.134;2022-09-11T03:55:14;16.80;99.90
3300;DHT22;1662;49.310;8.134;2022-09-11T03:57:43;16.70;99.90
3300;DHT22;1662;49.310;8.134;2022-09-11T04:00:12;16.70;99.90
3300;DHT22;1662;49.310;8.134;2022-09-11T04:02:37;16.70;99.90
3300;DHT22;1662;49.310;8.134;2022-09-11T04:05:03;16.70;99.90
3300;DHT22;1662;49.310;8.134;2022-09-11T04:07:29;16.70;99.90
3300;DHT22;1662;49.310;8.134;2022-09-11T04:09:55;16.70;99.90
3300;DHT22;1662;49.310;8.134;2022-09-11T04:12:21;16.70;99.90
3300;DHT22;1662;49.310;8.134;2022-09-11T04:14:47;16.70;99.90
3300;DHT22;1662;49.310;8.134;2022-09-11T04:17:15;16.70;99.90
3300;DHT22;1662;49.310;8.134;2022-09-11T04:19:40;16.70;99.90
3300;DHT22;1662;49.310;8.134;2022-09-11T04:22:06;16.70;99.90
3300;DHT22;1662;49.310;8.134;2022-09-11T04:24:31;16.70;99.90
3300;DHT22;1662;49.310;8.134;2022-09-11T04:26:57;16.70;99.90
3300;DHT22;1662;49.310;8.134;2022-09-11T04:29:25;16.70;99.90
3300;DHT22;1662;49.310;8.134;2022-09-11T04:31:53;16.70;99.90
3300;DHT22;1662;49.310;8.134;2022-09-11T04:34:20;16.70;99.90
3300;DHT22;1662;49.310;8.134;2022-09-11T04:36:48;16.70;99.90
3300;DHT22;1662;49.310;8.134;2022-09-11T04:39:16;16.70;99.90
3300;DHT22;1662;49.310;8.134;2022-09-11T04:41:42;16.70;99.90
3300;DHT22;1662;49.310;8.134;2022-09-11T04:44:08;16.70;99.90
3300;DHT22;1662;49.310;8.134;2022-09-11T04:46:34;16.70;99.90
3300;DHT22;1662;49.310;8.134;2022-09-11T04:49:00;16.70;99.90
3300;DHT22;1662;49.310;8.134;2022-09-11T04:51:33;16.70;99.90
3300;DHT22;1662;49.310;8.134;2022-09-11T04:54:00;16.70;99.90
3300;DHT22;1662;49.310;8.134;2022-09-11T04:56:30;16.70;99.90
3300;DHT22;1662;49.310;8.134;2022-09-11T04:59:03;16.70;99.90
3300;DHT22;1662;49.310;8.134;2022-09-11T05:01:31;16.70;99.90
3300;DHT22;1662;49.310;8.134;2022-09-11T05:03:58;16.70;99.90
3300;DHT22;1662;49.310;8.134;2022-09-11T05:06:29;16.70;99.90
3300;DHT22;1662;49.310;8.134;2022-09-11T05:08:55;16.60;99.90
3300;DHT22;1662;49.310;8.134;2022-09-11T05:11:24;16.60;99.90
3300;DHT22;1662;49.310;8.134;2022-09-11T05:13:50;16.60;99.90
3300;DHT22;1662;49.310;8.134;2022-09-11T05:16:16;16.60;99.90
3300;DHT22;1662;49.310;8.134;2022-09-11T05:18:48;16.60;99.90
3300;DHT22;1662;49.310;8.134;2022-09-11T05:21:15;16.60;99.90
3300;DHT22;1662;49.310;8.134;2022-09-11T05:23:48;16.60;99.90
3300;DHT22;1662;49.310;8.134;2022-09-11T05:26:16;16.70;99.90
3300;DHT22;1662;49.310;8.134;2022-09-11T05:28:42;16.70;99.90
3300;DHT22;1662;49.310;8.134;2022-09-11T05:31:16;16.70;99.90
3300;DHT22;1662;49.310;8.134;2022-09-11T05:33:45;16.70;99.90
3300;DHT22;1662;49.310;8.134;2022-09-11T05:36:12;16.70;99.90
3300;DHT22;1662;49.310;8.134;2022-09-11T05:38:38;16.70;99.90
3300;DHT22;1662;49.310;8.134;2022-09-11T05:41:05;16.70;99.90
3300;DHT22;1662;49.310;8.134;2022-09-11T05:43:34;16.80;99.90
3300;DHT22;1662;49.310;8.134;2022-09-11T05:46:00;16.80;99.90
3300;DHT22;1662;49.310;8.134;2022-09-11T05:48:33;16.80;99.90
3300;DHT22;1662;49.310;8.134;2022-09-11T05:51:05;16.80;99.90
3300;DHT22;1662;49.310;8.134;2022-09-11T05:53:32;16.80;99.90
3300;DHT22;1662;49.310;8.134;2022-09-11T05:56:04;16.90;99.90
3300;DHT22;1662;49.310;8.134;2022-09-11T05:58:31;16.90;99.90
3300;DHT22;1662;49.310;8.134;2022-09-11T06:03:30;16.90;99.90
3300;DHT22;1662;49.310;8.134;2022-09-11T06:06:08;16.90;99.90
3300;DHT22;1662;49.310;8.134;2022-09-11T06:08:34;17.00;99.90
3300;DHT22;1662;49.310;8.134;2022-09-11T06:11:02;17.00;99.90
3300;DHT22;1662;49.310;8.134;2022-09-11T06:13:28;17.00;99.90
3300;DHT22;1662;49.310;8.134;2022-09-11T06:15:55;17.10;99.90
3300;DHT22;1662;49.310;8.134;2022-09-11T06:18:23;17.10;99.90
3300;DHT22;1662;49.310;8.134;2022-09-11T06:20:56;17.10;99.90
3300;DHT22;1662;49.310;8.134;2022-09-11T06:23:22;17.10;99.90
3300;DHT22;1662;49.310;8.134;2022-09-11T06:25:50;17.10;99.90
3300;DHT22;1662;49.310;8.134;2022-09-11T06:28:17;17.20;99.90
3300;DHT22;1662;49.310;8.134;2022-09-11T06:30:43;17.10;99.90
3300;DHT22;1662;49.310;8.134;2022-09-11T06:33:08;17.20;99.90
3300;DHT22;1662;49.310;8.134;2022-09-11T06:35:37;17.20;99.90
3300;DHT22;1662;49.310;8.134;2022-09-11T06:38:02;17.20;99.90
3300;DHT22;1662;49.310;8.134;2022-09-11T06:40:29;17.20;99.90
3300;DHT22;1662;49.310;8.134;2022-09-11T06:42:56;17.20;99.90
3300;DHT22;1662;49.310;8.134;2022-09-11T06:45:23;17.20;99.90
3300;DHT22;1662;49.310;8.134;2022-09-11T06:47:49;17.20;99.90
3300;DHT22;1662;49.310;8.134;2022-09-11T06:50:14;17.20;99.90
3300;DHT22;1662;49.310;8.134;2022-09-11T06:52:40;17.20;99.90
3300;DHT22;1662;49.310;8.134;2022-09-11T06:55:07;17.20;99.90
3300;DHT22;1662;49.310;8.134;2022-09-11T06:57:37;17.20;99.90
3300;DHT22;1662;49.310;8.134;2022-09-11T07:00:06;17.20;99.90
3300;DHT22;1662;49.310;8.134;2022-09-11T07:02:32;17.30;99.90
3300;DHT22;1662;49.310;8.134;2022-09-11T07:04:57;17.30;99.90
3300;DHT22;1662;49.310;8.134;2022-09-11T07:07:23;17.30;99.90
3300;DHT22;1662;49.310;8.134;2022-09-11T07:09:48;17.40;99.90
3300;DHT22;1662;49.310;8.134;2022-09-11T07:12:14;17.40;99.90
3300;DHT22;1662;49.310;8.134;2022-09-11T07:14:44;17.40;99.90
3300;DHT22;1662;49.310;8.134;2022-09-11T07:17:09;17.50;99.90
3300;DHT22;1662;49.310;8.134;2022-09-11T07:19:35;17.50;99.90
3300;DHT22;1662;49.310;8.134;2022-09-11T07:22:00;17.50;99.90
3300;DHT22;1662;49.310;8.134;2022-09-11T07:24:26;17.50;99.90
3300;DHT22;1662;49.310;8.134;2022-09-11T07:26:52;17.60;99.90
3300;DHT22;1662;49.310;8.134;2022-09-11T07:29:19;17.70;99.90
3300;DHT22;1662;49.310;8.134;2022-09-11T07:31:44;17.70;99.90
3300;DHT22;1662;49.310;8.134;2022-09-11T07:34:12;17.80;99.90
3300;DHT22;1662;49.310;8.134;2022-09-11T07:36:38;17.80;99.90
3300;DHT22;1662;49.310;8.134;2022-09-11T07:39:04;17.80;99.90
3300;DHT22;1662;49.310;8.134;2022-09-11T07:41:29;17.80;99.90
3300;DHT22;1662;49.310;8.134;2022-09-11T07:43:57;17.80;99.90
3300;DHT22;1662;49.310;8.134;2022-09-11T07:46:24;17.80;99.90
3300;DHT22;1662;49.310;8.134;2022-09-11T07:48:51;17.80;99.90
3300;DHT22;1662;49.310;8.134;2022-09-11T07:51:18;17.90;99.90
3300;DHT22;1662;49.310;8.134;2022-09-11T07:53:45;17.90;99.90
3300;DHT22;1662;49.310;8.134;2022-09-11T07:56:23;17.80;99.90
3300;DHT22;1662;49.310;8.134;2022-09-11T07:58:50;17.80;99.90
3300;DHT22;1662;49.310;8.134;2022-09-11T08:01:23;17.80;99.90
3300;DHT22;1662;49.310;8.134;2022-09-11T08:03:57;17.80;99.90
3300;DHT22;1662;49.310;8.134;2022-09-11T08:06:29;17.80;99.90
3300;DHT22;1662;49.310;8.134;2022-09-11T08:08:57;17.80;99.90
3300;DHT22;1662;49.310;8.134;2022-09-11T08:11:24;17.90;99.90
3300;DHT22;1662;49.310;8.134;2022-09-11T08:13:54;17.90;99.90
3300;DHT22;1662;49.310;8.134;2022-09-11T08:16:22;18.00;99.90
3300;DHT22;1662;49.310;8.134;2022-09-11T08:18:48;18.00;99.90
3300;DHT22;1662;49.310;8.134;2022-09-11T08:21:15;18.00;99.90
3300;DHT22;1662;49.310;8.134;2022-09-11T08:23:42;18.00;99.90
3300;DHT22;1662;49.310;8.134;2022-09-11T08:26:27;18.10;99.90
3300;DHT22;1662;49.310;8.134;2022-09-11T08:28:55;18.10;99.90
3300;DHT22;1662;49.310;8.134;2022-09-11T08:31:23;18.20;99.90
3300;DHT22;1662;49.310;8.134;2022-09-11T08:33:55;18.20;99.90
3300;DHT22;1662;49.310;8.134;2022-09-11T08:36:21;18.30;99.90
3300;DHT22;1662;49.310;8.134;2022-09-11T08:38:49;18.40;99.90
3300;DHT22;1662;49.310;8.134;2022-09-11T08:43:57;18.50;99.90
3300;DHT22;1662;49.310;8.134;2022-09-11T08:46:28;18.50;99.90
3300;DHT22;1662;49.310;8.134;2022-09-11T08:49:16;18.60;99.90
3300;DHT22;1662;49.310;8.134;2022-09-11T08:51:42;18.60;99.90
3300;DHT22;1662;49.310;8.134;2022-09-11T08:54:29;18.80;99.90
3300;DHT22;1662;49.310;8.134;2022-09-11T08:57:04;18.90;99.90
3300;DHT22;1662;49.310;8.134;2022-09-11T08:59:47;19.00;99.90
3300;DHT22;1662;49.310;8.134;2022-09-11T09:13:35;19.40;99.90
3300;DHT22;1662;49.310;8.134;2022-09-11T09:18:38;19.60;99.90
3300;DHT22;1662;49.310;8.134;2022-09-11T09:21:17;19.70;99.90
3300;DHT22;1662;49.310;8.134;2022-09-11T09:23:52;19.70;99.90
3300;DHT22;1662;49.310;8.134;2022-09-11T09:26:18;19.80;99.90
3300;DHT22;1662;49.310;8.134;2022-09-11T09:28:47;19.90;99.90
3300;DHT22;1662;49.310;8.134;2022-09-11T09:31:18;20.00;99.90
3300;DHT22;1662;49.310;8.134;2022-09-11T09:33:53;20.10;99.90
3300;DHT22;1662;49.310;8.134;2022-09-11T09:36:26;20.10;99.90
3300;DHT22;1662;49.310;8.134;2022-09-11T09:38:56;20.00;99.90
3300;DHT22;1662;49.310;8.134;2022-09-11T09:41:41;20.00;99.90
3300;DHT22;1662;49.310;8.134;2022-09-11T09:47:07;19.90;99.90
3300;DHT22;1662;49.310;8.134;2022-09-11T09:49:35;19.80;99.90
3300;DHT22;1662;49.310;8.134;2022-09-11T09:52:17;19.80;99.90
3300;DHT22;1662;49.310;8.134;2022-09-11T09:54:58;19.80;99.90
3300;DHT22;1662;49.310;8.134;2022-09-11T09:57:35;19.70;99.90
3300;DHT22;1662;49.310;8.134;2022-09-11T10:00:05;19.70;99.90
3300;DHT22;1662;49.310;8.134;2022-09-11T10:07:56;20.00;99.90
3300;DHT22;1662;49.310;8.134;2022-09-11T10:10:37;20.40;99.90
3300;DHT22;1662;49.310;8.134;2022-09-11T10:13:36;20.70;99.90
3300;DHT22;1662;49.310;8.134;2022-09-11T10:16:04;21.00;99.90
3300;DHT22;1662;49.310;8.134;2022-09-11T10:18:43;21.20;99.90
3300;DHT22;1662;49.310;8.134;2022-09-11T10:23:44;21.50;99.90
3300;DHT22;1662;49.310;8.134;2022-09-11T10:26:38;21.80;99.90
3300;DHT22;1662;49.310;8.134;2022-09-11T10:29:28;22.00;99.90
3300;DHT22;1662;49.310;8.134;2022-09-11T10:31:58;22.20;99.90
3300;DHT22;1662;49.310;8.134;2022-09-11T10:34:33;22.20;99.90
3300;DHT22;1662;49.310;8.134;2022-09-11T10:37:14;22.10;99.90
3300;DHT22;1662;49.310;8.134;2022-09-11T10:39:45;22.00;99.90
3300;DHT22;1662;49.310;8.134;2022-09-11T10:42:21;21.80;99.90
3300;DHT22;1662;49.310;8.134;2022-09-11T10:44:49;21.70;99.90
3300;DHT22;1662;49.310;8.134;2022-09-11T10:49:47;21.50;99.90
3300;DHT22;1662;49.310;8.134;2022-09-11T11:02:41;22.70;99.90
3300;DHT22;1662;49.310;8.134;2022-09-11T11:05:16;23.00;99.90
3300;DHT22;1662;49.310;8.134;2022-09-11T11:30:28;21.60;99.90
3300;DHT22;1662;49.310;8.134;2022-09-11T11:38:44;21.50;99.90
3300;DHT22;1662;49.310;8.134;2022-09-11T11:41:13;21.50;99.90
3300;DHT22;1662;49.310;8.134;2022-09-11T11:43:42;21.60;99.90
3300;DHT22;1662;49.310;8.134;2022-09-11T11:46:18;21.70;99.90
3300;DHT22;1662;49.310;8.134;2022-09-11T11:48:49;21.80;99.90
3300;DHT22;1662;49.310;8.134;2022-09-11T11:51:25;21.80;99.90
3300;DHT22;1662;49.310;8.134;2022-09-11T11:59:48;22.10;99.90
3300;DHT22;1662;49.310;8.134;2022-09-11T12:02:23;22.00;99.90
3300;DHT22;1662;49.310;8.134;2022-09-11T12:04:57;22.00;99.90
3300;DHT22;1662;49.310;8.134;2022-09-11T12:07:31;22.00;99.90
3300;DHT22;1662;49.310;8.134;2022-09-11T12:09:59;21.90;99.90
3300;DHT22;1662;49.310;8.134;2022-09-11T12:12:34;21.80;99.90
3300;DHT22;1662;49.310;8.134;2022-09-11T12:15:06;21.80;99.90
3300;DHT22;1662;49.310;8.134;2022-09-11T12:17:36;21.80;99.90
3300;DHT22;1662;49.310;8.134;2022-09-11T12:32:48;21.60;99.90
3300;DHT22;1662;49.310;8.134;2022-09-11T12:40:45;21.70;99.90
3300;DHT22;1662;49.310;8.134;2022-09-11T12:45:53;21.90;99.90
3300;DHT22;1662;49.310;8.134;2022-09-11T12:51:03;22.10;99.90
3300;DHT22;1662;49.310;8.134;2022-09-11T12:53:31;22.10;99.90
3300;DHT22;1662;49.310;8.134;2022-09-11T12:58:36;22.20;99.90
3300;DHT22;1662;49.310;8.134;2022-09-11T13:03:35;22.10;99.90
3300;DHT22;1662;49.310;8.134;2022-09-11T13:06:10;22.10;99.90
3300;DHT22;1662;49.310;8.134;2022-09-11T13:08:46;22.10;99.90
3300;DHT22;1662;49.310;8.134;2022-09-11T13:11:41;22.00;99.90
3300;DHT22;1662;49.310;8.134;2022-09-11T13:17:10;22.00;99.90
3300;DHT22;1662;49.310;8.134;2022-09-11T13:19:36;22.00;99.90
3300;DHT22;1662;49.310;8.134;2022-09-11T13:24:48;21.90;99.90
3300;DHT22;1662;49.310;8.134;2022-09-11T13:27:24;21.90;99.90
3300;DHT22;1662;49.310;8.134;2022-09-11T13:29:57;21.90;99.90
3300;DHT22;1662;49.310;8.134;2022-09-11T13:32:24;21.90;99.90
3300;DHT22;1662;49.310;8.134;2022-09-11T13:34:54;21.90;99.90
3300;DHT22;1662;49.310;8.134;2022-09-11T13:37:58;21.90;99.90
3300;DHT22;1662;49.310;8.134;2022-09-11T13:40:40;21.90;99.90
3300;DHT22;1662;49.310;8.134;2022-09-11T13:43:06;21.90;99.90
3300;DHT22;1662;49.310;8.134;2022-09-11T13:45:32;22.00;99.90
3300;DHT22;1662;49.310;8.134;2022-09-11T13:47:58;22.10;99.90
3300;DHT22;1662;49.310;8.134;2022-09-11T13:50:24;22.10;99.90
3300;DHT22;1662;49.310;8.134;2022-09-11T13:52:52;22.10;99.90
3300;DHT22;1662;49.310;8.134;2022-09-11T13:55:20;22.20;99.90
3300;DHT22;1662;49.310;8.134;2022-09-11T14:03:25;22.90;99.90
3300;DHT22;1662;49.310;8.134;2022-09-11T14:05:54;23.00;99.90
3300;DHT22;1662;49.310;8.134;2022-09-11T14:11:11;22.80;99.90
3300;DHT22;1662;49.310;8.134;2022-09-11T14:13:45;22.60;99.90
3300;DHT22;1662;49.310;8.134;2022-09-11T14:18:42;22.50;99.90
3300;DHT22;1662;49.310;8.134;2022-09-11T14:21:34;22.50;99.90
3300;DHT22;1662;49.310;8.134;2022-09-11T14:24:01;22.60;99.90
3300;DHT22;1662;49.310;8.134;2022-09-11T14:31:36;22.70;99.90
3300;DHT22;1662;49.310;8.134;2022-09-11T14:41:48;24.30;99.90
3300;DHT22;1662;49.310;8.134;2022-09-11T14:44:15;24.30;99.90
3300;DHT22;1662;49.310;8.134;2022-09-11T14:46:42;24.30;99.90
3300;DHT22;1662;49.310;8.134;2022-09-11T14:49:08;24.20;99.90
3300;DHT22;1662;49.310;8.134;2022-09-11T14:51:38;24.10;99.90
3300;DHT22;1662;49.310;8.134;2022-09-11T14:54:05;24.10;99.90
3300;DHT22;1662;49.310;8.134;2022-09-11T14:56:31;24.20;99.90
3300;DHT22;1662;49.310;8.134;2022-09-11T14:58:59;24.10;99.90
3300;DHT22;1662;49.310;8.134;2022-09-11T15:01:29;24.20;99.90
3300;DHT22;1662;49.310;8.134;2022-09-11T15:03:55;24.20;99.90
3300;DHT22;1662;49.310;8.134;2022-09-11T15:06:21;24.10;99.90
3300;DHT22;1662;49.310;8.134;2022-09-11T15:08:47;23.80;99.90
3300;DHT22;1662;49.310;8.134;2022-09-11T15:11:13;23.60;99.90
3300;DHT22;1662;49.310;8.134;2022-09-11T15:13:38;23.40;99.90
3300;DHT22;1662;49.310;8.134;2022-09-11T15:16:05;23.40;99.90
3300;DHT22;1662;49.310;8.134;2022-09-11T15:18:31;23.40;99.90
3300;DHT22;1662;49.310;8.134;2022-09-11T15:20:59;23.60;99.90
3300;DHT22;1662;49.310;8.134;2022-09-11T15:23:25;23.90;99.90
3300;DHT22;1662;49.310;8.134;2022-09-11T15:25:56;23.90;99.90
3300;DHT22;1662;49.310;8.134;2022-09-11T15:28:29;23.90;99.90
3300;DHT22;1662;49.310;8.134;2022-09-11T15:30:56;24.00;99.90
3300;DHT22;1662;49.310;8.134;2022-09-11T15:33:27;23.90;99.90
3300;DHT22;1662;49.310;8.134;2022-09-11T15:35:53;23.80;99.90
3300;DHT22;1662;49.310;8.134;2022-09-11T15:38:23;23.70;99.90
3300;DHT22;1662;49.310;8.134;2022-09-11T15:40:51;23.60;99.90
3300;DHT22;1662;49.310;8.134;2022-09-11T15:43:22;23.60;99.90
3300;DHT22;1662;49.310;8.134;2022-09-11T15:45:48;23.50;99.90
3300;DHT22;1662;49.310;8.134;2022-09-11T15:48:13;23.40;99.90
3300;DHT22;1662;49.310;8.134;2022-09-11T15:50:39;23.30;99.90
3300;DHT22;1662;49.310;8.134;2022-09-11T15:53:05;23.30;99.90
3300;DHT22;1662;49.310;8.134;2022-09-11T15:55:31;23.20;99.90
3300;DHT22;1662;49.310;8.134;2022-09-11T15:57:59;23.20;99.90
3300;DHT22;1662;49.310;8.134;2022-09-11T16:00:25;23.20;99.90
3300;DHT22;1662;49.310;8.134;2022-09-11T16:02:53;23.30;99.90
3300;DHT22;1662;49.310;8.134;2022-09-11T16:05:21;23.70;99.90
3300;DHT22;1662;49.310;8.134;2022-09-11T16:07:49;24.10;99.90
3300;DHT22;1662;49.310;8.134;2022-09-11T16:10:14;24.20;99.90
3300;DHT22;1662;49.310;8.134;2022-09-11T16:12:42;24.20;99.90
3300;DHT22;1662;49.310;8.134;2022-09-11T16:15:10;24.00;99.90
3300;DHT22;1662;49.310;8.134;2022-09-11T16:17:36;23.70;99.90
3300;DHT22;1662;49.310;8.134;2022-09-11T16:20:02;23.60;99.90
3300;DHT22;1662;49.310;8.134;2022-09-11T16:22:30;23.50;99.90
3300;DHT22;1662;49.310;8.134;2022-09-11T16:24:56;23.50;99.90
3300;DHT22;1662;49.310;8.134;2022-09-11T16:27:23;23.50;99.90
3300;DHT22;1662;49.310;8.134;2022-09-11T16:29:52;23.60;99.90
3300;DHT22;1662;49.310;8.134;2022-09-11T16:32:17;23.70;99.90
3300;DHT22;1662;49.310;8.134;2022-09-11T16:34:52;23.90;99.90
3300;DHT22;1662;49.310;8.134;2022-09-11T16:37:21;24.10;99.90
3300;DHT22;1662;49.310;8.134;2022-09-11T16:39:48;24.20;99.90
3300;DHT22;1662;49.310;8.134;2022-09-11T16:42:17;24.40;99.90
3300;DHT22;1662;49.310;8.134;2022-09-11T16:44:45;24.50;99.90
3300;DHT22;1662;49.310;8.134;2022-09-11T16:47:13;24.50;99.90
3300;DHT22;1662;49.310;8.134;2022-09-11T16:49:41;24.40;99.90
3300;DHT22;1662;49.310;8.134;2022-09-11T16:52:06;24.30;99.90
3300;DHT22;1662;49.310;8.134;2022-09-11T16:54:32;24.10;99.90
3300;DHT22;1662;49.310;8.134;2022-09-11T16:56:57;23.90;99.90
3300;DHT22;1662;49.310;8.134;2022-09-11T16:59:23;23.70;99.90
3300;DHT22;1662;49.310;8.134;2022-09-11T17:01:50;23.40;99.90
3300;DHT22;1662;49.310;8.134;2022-09-11T17:04:16;23.30;99.90
3300;DHT22;1662;49.310;8.134;2022-09-11T17:06:42;23.10;99.90
3300;DHT22;1662;49.310;8.134;2022-09-11T17:09:08;22.90;99.90
3300;DHT22;1662;49.310;8.134;2022-09-11T17:11:33;22.80;99.90
3300;DHT22;1662;49.310;8.134;2022-09-11T17:14:01;22.60;99.90
3300;DHT22;1662;49.310;8.134;2022-09-11T17:16:28;22.50;99.90
3300;DHT22;1662;49.310;8.134;2022-09-11T17:18:56;22.40;99.90
3300;DHT22;1662;49.310;8.134;2022-09-11T17:21:24;22.30;99.90
3300;DHT22;1662;49.310;8.134;2022-09-11T17:23:54;22.10;99.90
3300;DHT22;1662;49.310;8.134;2022-09-11T17:26:20;22.00;99.90
3300;DHT22;1662;49.310;8.134;2022-09-11T17:28:47;21.90;99.90
3300;DHT22;1662;49.310;8.134;2022-09-11T17:31:14;21.90;99.90
3300;DHT22;1662;49.310;8.134;2022-09-11T17:33:43;21.70;99.90
3300;DHT22;1662;49.310;8.134;2022-09-11T17:36:11;21.60;99.90
3300;DHT22;1662;49.310;8.134;2022-09-11T17:38:39;21.50;99.90
3300;DHT22;1662;49.310;8.134;2022-09-11T17:41:07;21.40;99.90
3300;DHT22;1662;49.310;8.134;2022-09-11T17:43:33;21.30;99.90
3300;DHT22;1662;49.310;8.134;2022-09-11T17:46:07;21.20;99.90
3300;DHT22;1662;49.310;8.134;2022-09-11T17:48:33;21.10;99.90
3300;DHT22;1662;49.310;8.134;2022-09-11T17:51:01;21.00;99.90
3300;DHT22;1662;49.310;8.134;2022-09-11T17:53:30;20.90;99.90
3300;DHT22;1662;49.310;8.134;2022-09-11T17:56:00;20.90;99.90
3300;DHT22;1662;49.310;8.134;2022-09-11T17:58:25;20.80;99.90
3300;DHT22;1662;49.310;8.134;2022-09-11T18:00:56;20.70;99.90
3300;DHT22;1662;49.310;8.134;2022-09-11T18:03:31;20.60;99.90
3300;DHT22;1662;49.310;8.134;2022-09-11T18:05:58;20.60;99.90
3300;DHT22;1662;49.310;8.134;2022-09-11T18:08:24;20.50;99.90
3300;DHT22;1662;49.310;8.134;2022-09-11T18:10:55;20.50;99.90
3300;DHT22;1662;49.310;8.134;2022-09-11T18:13:29;20.40;99.90
3300;DHT22;1662;49.310;8.134;2022-09-11T18:15:56;20.40;99.90
3300;DHT22;1662;49.310;8.134;2022-09-11T18:18:22;20.30;99.90
3300;DHT22;1662;49.310;8.134;2022-09-11T18:20:49;20.20;99.90
3300;DHT22;1662;49.310;8.134;2022-09-11T18:23:18;20.10;99.90
3300;DHT22;1662;49.310;8.134;2022-09-11T18:25:44;20.00;99.90
3300;DHT22;1662;49.310;8.134;2022-09-11T18:28:10;20.00;99.90
3300;DHT22;1662;49.310;8.134;2022-09-11T18:30:37;20.00;99.90
3300;DHT22;1662;49.310;8.134;2022-09-11T18:33:09;20.00;99.90
3300;DHT22;1662;49.310;8.134;2022-09-11T18:35:37;19.90;99.90
3300;DHT22;1662;49.310;8.134;2022-09-11T18:38:03;19.90;99.90
3300;DHT22;1662;49.310;8.134;2022-09-11T18:40:29;19.80;99.90
3300;DHT22;1662;49.310;8.134;2022-09-11T18:42:55;19.80;99.90
3300;DHT22;1662;49.310;8.134;2022-09-11T18:45:21;19.70;99.90
3300;DHT22;1662;49.310;8.134;2022-09-11T18:47:49;19.70;99.90
3300;DHT22;1662;49.310;8.134;2022-09-11T18:50:21;19.70;99.90
3300;DHT22;1662;49.310;8.134;2022-09-11T18:52:47;19.60;99.90
3300;DHT22;1662;49.310;8.134;2022-09-11T18:55:16;19.50;99.90
3300;DHT22;1662;49.310;8.134;2022-09-11T18:57:45;19.50;99.90
3300;DHT22;1662;49.310;8.134;2022-09-11T19:00:14;19.40;99.90
3300;DHT22;1662;49.310;8.134;2022-09-11T19:02:45;19.40;99.90
3300;DHT22;1662;49.310;8.134;2022-09-11T19:05:12;19.40;99.90
3300;DHT22;1662;49.310;8.134;2022-09-11T19:07:40;19.30;99.90
3300;DHT22;1662;49.310;8.134;2022-09-11T19:10:06;19.20;99.90
3300;DHT22;1662;49.310;8.134;2022-09-11T19:12:32;19.20;99.90